createdAt,value
2023-05-06T00:01:49.563Z,53.96
2023-05-06T00:04:16.590Z,54.02
2023-05-06T00:06:44.032Z,53.83
2023-05-06T00:09:11.138Z,53.84
2023-05-06T00:11:38.141Z,53.67
2023-05-06T00:14:05.129Z,53.98
2023-05-06T00:16:32.251Z,53.96
2023-05-06T00:18:59.207Z,53.92
2023-05-06T00:21:27.257Z,54.19
2023-05-06T00:23:54.235Z,54.19
2023-05-06T00:26:21.205Z,54.09
2023-05-06T00:28:48.163Z,54.26
2023-05-06T00:31:15.235Z,54.23
2023-05-06T00:33:42.232Z,54.15
2023-05-06T00:36:09.484Z,54.73
2023-05-06T00:38:36.500Z,54.75
2023-05-06T00:41:03.578Z,54.91
2023-05-06T00:43:30.531Z,54.88
2023-05-06T00:45:57.546Z,55.09
2023-05-06T00:48:24.570Z,55.03
2023-05-06T00:50:51.605Z,55.32
2023-05-06T00:53:19.931Z,55.35
2023-05-06T00:55:46.893Z,55.31
2023-05-06T00:58:14.078Z,55.32
2023-05-06T01:00:42.522Z,55.15
2023-05-06T01:03:09.704Z,55.43
2023-05-06T01:05:44.158Z,55.52
2023-05-06T01:08:19.814Z,55.42
2023-05-06T01:10:52.409Z,55.19
2023-05-06T01:13:39.259Z,54.95
2023-05-06T01:16:06.377Z,54.58
2023-05-06T01:18:33.463Z,54.57
2023-05-06T01:21:00.495Z,54.44
2023-05-06T01:23:27.563Z,54.44
2023-05-06T01:25:54.535Z,54.76
2023-05-06T01:28:22.015Z,54.70
2023-05-06T01:30:58.256Z,54.32
2023-05-06T01:33:53.212Z,54.04
2023-05-06T01:36:38.609Z,54.02
2023-05-06T01:39:27.232Z,54.17
2023-05-06T01:41:54.952Z,54.16
2023-05-06T01:44:22.293Z,54.10
2023-05-06T01:46:50.034Z,53.96
2023-05-06T01:49:18.128Z,53.68
2023-05-06T01:51:48.672Z,53.50
2023-05-06T01:54:15.688Z,53.59
2023-05-06T01:56:42.694Z,53.60
2023-05-06T01:59:09.911Z,53.91
2023-05-06T02:01:36.902Z,54.22
2023-05-06T02:04:04.345Z,54.33
2023-05-06T02:06:31.865Z,54.45
2023-05-06T02:08:59.166Z,54.37
2023-05-06T02:11:26.808Z,54.61
2023-05-06T02:13:59.321Z,54.35
2023-05-06T02:16:29.560Z,54.10
2023-05-06T02:18:56.615Z,53.89
2023-05-06T02:21:23.730Z,53.86
2023-05-06T02:23:50.908Z,53.80
2023-05-06T02:26:17.909Z,54.02
2023-05-06T02:28:44.879Z,54.05
2023-05-06T02:31:16.083Z,53.89
2023-05-06T02:33:43.733Z,53.82
2023-05-06T02:36:11.438Z,53.93
2023-05-06T02:38:38.658Z,53.92
2023-05-06T02:41:05.646Z,53.89
2023-05-06T02:43:32.681Z,54.07
2023-05-06T02:45:59.683Z,54.16
2023-05-06T02:48:26.783Z,54.20
2023-05-06T02:50:53.745Z,54.22
2023-05-06T02:53:20.900Z,54.11
2023-05-06T02:55:47.856Z,53.53
2023-05-06T02:58:14.842Z,52.50
2023-05-06T03:00:41.888Z,52.02
2023-05-06T03:03:09.274Z,51.63
2023-05-06T03:05:36.284Z,51.56
2023-05-06T03:08:03.297Z,52.30
2023-05-06T03:10:30.890Z,52.71
2023-05-06T03:12:58.270Z,53.10
2023-05-06T03:15:25.485Z,53.07
2023-05-06T03:17:53.871Z,53.36
2023-05-06T03:20:21.581Z,53.92
2023-05-06T03:22:51.813Z,53.97
2023-05-06T03:25:19.088Z,53.46
2023-05-06T03:27:46.394Z,53.48
2023-05-06T03:30:17.700Z,53.63
2023-05-06T03:32:45.026Z,54.02
2023-05-06T03:35:14.324Z,54.09
2023-05-06T03:37:42.593Z,54.12
2023-05-06T03:40:09.901Z,53.74
2023-05-06T03:42:36.988Z,53.66
2023-05-06T03:45:06.635Z,53.37
2023-05-06T03:47:34.155Z,53.06
2023-05-06T03:50:01.736Z,52.68
2023-05-06T03:52:29.884Z,52.78
2023-05-06T03:54:57.037Z,52.87
2023-05-06T03:57:24.432Z,52.91
2023-05-06T03:59:51.603Z,52.97
2023-05-06T04:02:18.812Z,52.88
2023-05-06T04:04:45.863Z,52.99
2023-05-06T04:07:12.864Z,53.04
2023-05-06T04:09:39.905Z,53.28
2023-05-06T04:12:07.860Z,53.43
2023-05-06T04:14:35.190Z,53.74
2023-05-06T04:17:02.713Z,54.02
2023-05-06T04:19:30.294Z,53.88
2023-05-06T04:21:58.576Z,53.92
2023-05-06T04:24:28.105Z,53.93
2023-05-06T04:26:55.922Z,53.62
2023-05-06T04:29:23.564Z,53.56
2023-05-06T04:31:57.869Z,53.55
2023-05-06T04:34:27.944Z,53.39
2023-05-06T04:36:55.518Z,52.98
2023-05-06T04:39:48.723Z,52.85
2023-05-06T04:42:18.917Z,52.73
2023-05-06T04:44:52.948Z,52.90
2023-05-06T04:47:22.320Z,52.78
2023-05-06T04:49:50.534Z,52.92
2023-05-06T04:52:18.337Z,52.81
2023-05-06T04:54:45.775Z,53.01
2023-05-06T04:57:13.101Z,52.90
2023-05-06T04:59:41.856Z,53.03
2023-05-06T05:02:08.881Z,52.90
2023-05-06T05:04:36.716Z,52.67
2023-05-06T05:07:03.680Z,52.78
2023-05-06T05:09:31.289Z,52.77
2023-05-06T05:11:58.554Z,52.42
2023-05-06T05:14:26.180Z,51.82
2023-05-06T05:16:53.343Z,51.82
2023-05-06T05:19:21.445Z,51.52
2023-05-06T05:21:49.280Z,51.53
2023-05-06T05:24:16.428Z,51.39
2023-05-06T05:26:43.630Z,51.37
2023-05-06T05:29:11.354Z,51.30
2023-05-06T05:31:38.612Z,50.48
2023-05-06T05:34:06.838Z,49.77
2023-05-06T05:36:33.797Z,48.99
2023-05-06T05:39:02.880Z,48.26
2023-05-06T05:41:30.786Z,47.39
2023-05-06T05:43:57.756Z,46.61
2023-05-06T05:46:25.730Z,46.00
2023-05-06T05:48:52.758Z,45.11
2023-05-06T05:51:20.879Z,44.56
2023-05-06T05:53:49.156Z,44.35
2023-05-06T05:56:16.896Z,43.79
2023-05-06T05:58:45.107Z,43.63
2023-05-06T06:01:12.112Z,43.27
2023-05-06T06:03:39.192Z,42.81
2023-05-06T06:06:06.816Z,43.20
2023-05-06T06:08:34.124Z,42.95
2023-05-06T06:11:04.111Z,42.67
2023-05-06T06:13:35.393Z,42.40
2023-05-06T06:16:02.395Z,42.25
2023-05-06T06:18:29.523Z,42.49
2023-05-06T06:20:57.237Z,42.14
2023-05-06T06:23:24.676Z,42.46
2023-05-06T06:25:51.745Z,42.35
2023-05-06T06:28:18.777Z,42.36
2023-05-06T06:30:46.064Z,42.97
2023-05-06T06:33:13.052Z,42.63
2023-05-06T06:35:40.426Z,42.59
2023-05-06T06:38:07.483Z,42.68
2023-05-06T06:40:34.489Z,42.03
2023-05-06T06:43:01.926Z,42.28
2023-05-06T06:45:48.931Z,42.15
2023-05-06T06:48:16.748Z,41.99
2023-05-06T06:50:43.763Z,41.63
2023-05-06T06:53:11.225Z,41.85
2023-05-06T06:55:38.240Z,42.34
2023-05-06T06:58:05.499Z,41.43
2023-05-06T07:00:32.519Z,40.19
2023-05-06T07:02:59.539Z,39.91
2023-05-06T07:05:29.450Z,38.82
2023-05-06T07:07:56.632Z,38.18
2023-05-06T07:10:23.609Z,37.49
2023-05-06T07:12:50.591Z,37.16
2023-05-06T07:15:17.571Z,36.89
2023-05-06T07:17:45.127Z,35.59
2023-05-06T07:20:12.725Z,34.94
2023-05-06T07:22:41.438Z,34.45
2023-05-06T07:25:09.044Z,34.69
2023-05-06T07:27:36.313Z,34.78
2023-05-06T07:30:03.607Z,34.67
2023-05-06T07:32:30.999Z,34.40
2023-05-06T07:34:58.031Z,34.58
2023-05-06T07:37:25.055Z,35.08
2023-05-06T07:39:52.032Z,34.80
2023-05-06T07:42:19.056Z,35.41
2023-05-06T07:44:45.994Z,35.75
2023-05-06T07:47:27.224Z,36.40
2023-05-06T07:49:54.859Z,36.65
2023-05-06T07:52:22.889Z,37.05
2023-05-06T07:54:50.005Z,37.09
2023-05-06T07:57:17.191Z,37.22
2023-05-06T07:59:46.937Z,37.36
2023-05-06T08:02:14.249Z,37.86
2023-05-06T08:04:41.269Z,37.85
2023-05-06T08:07:08.251Z,37.52
2023-05-06T08:09:35.211Z,37.51
2023-05-06T08:12:02.680Z,37.78
2023-05-06T08:14:29.804Z,37.39
2023-05-06T08:16:56.767Z,37.54
2023-05-06T08:19:23.787Z,37.61
2023-05-06T08:21:51.665Z,37.79
2023-05-06T08:24:18.782Z,37.83
2023-05-06T08:26:45.930Z,37.41
2023-05-06T08:29:13.636Z,36.71
2023-05-06T08:31:40.677Z,36.21
2023-05-06T08:34:07.790Z,35.57
2023-05-06T08:36:34.746Z,35.00
2023-05-06T08:39:01.735Z,34.01
2023-05-06T08:41:28.869Z,33.48
2023-05-06T08:43:55.830Z,33.25
2023-05-06T08:46:23.153Z,33.34
2023-05-06T08:48:50.168Z,33.07
2023-05-06T08:51:17.213Z,33.13
2023-05-06T08:53:47.920Z,33.40
2023-05-06T08:56:15.142Z,33.13
2023-05-06T08:58:46.922Z,33.04
2023-05-06T09:01:14.178Z,32.63
2023-05-06T09:03:41.278Z,32.59
2023-05-06T09:06:08.392Z,32.20
2023-05-06T09:08:36.363Z,31.96
2023-05-06T09:11:03.443Z,31.98
2023-05-06T09:13:30.993Z,31.93
2023-05-06T09:15:57.952Z,31.79
2023-05-06T09:18:24.918Z,31.66
2023-05-06T09:20:51.909Z,31.70
2023-05-06T09:23:19.139Z,31.58
2023-05-06T09:25:47.187Z,31.49
2023-05-06T09:28:14.488Z,31.58
2023-05-06T09:30:42.342Z,31.76
2023-05-06T09:33:10.096Z,32.26
2023-05-06T09:35:38.452Z,32.49
2023-05-06T09:38:07.143Z,32.40
2023-05-06T09:40:37.725Z,32.89
2023-05-06T09:43:05.445Z,33.08
2023-05-06T09:45:33.294Z,33.04
2023-05-06T09:48:00.723Z,32.50
2023-05-06T09:50:27.798Z,32.35
2023-05-06T09:52:55.798Z,31.80
2023-05-06T09:55:23.335Z,31.65
2023-05-06T09:57:50.531Z,31.59
2023-05-06T10:00:17.859Z,31.20
2023-05-06T10:02:45.815Z,31.04
2023-05-06T10:05:13.756Z,30.90
2023-05-06T10:07:42.438Z,30.66
2023-05-06T10:10:11.240Z,30.46
2023-05-06T10:12:38.343Z,30.22
2023-05-06T10:15:06.194Z,30.42
2023-05-06T10:17:33.213Z,29.99
2023-05-06T10:20:00.955Z,30.30
2023-05-06T10:22:37.060Z,30.30
2023-05-06T10:25:06.484Z,30.41
2023-05-06T10:27:36.001Z,30.30
2023-05-06T10:30:03.190Z,30.20
2023-05-06T10:32:32.327Z,30.21
2023-05-06T10:35:06.401Z,30.46
2023-05-06T10:37:33.371Z,31.30
2023-05-06T10:40:00.362Z,31.29
2023-05-06T10:42:28.580Z,31.37
2023-05-06T10:44:59.665Z,31.82
2023-05-06T10:47:27.082Z,33.05
2023-05-06T10:50:22.069Z,33.73
2023-05-06T10:52:51.916Z,34.39
2023-05-06T10:55:29.322Z,34.63
2023-05-06T10:58:04.000Z,34.37
2023-05-06T11:00:31.974Z,34.36
2023-05-06T11:03:01.998Z,34.49
2023-05-06T11:05:29.194Z,34.46
2023-05-06T11:08:21.561Z,34.41
2023-05-06T11:10:48.496Z,34.51
2023-05-06T11:13:19.871Z,34.08
2023-05-06T11:15:47.502Z,33.84
2023-05-06T11:18:27.775Z,33.64
2023-05-06T11:21:02.734Z,34.16
2023-05-06T11:23:42.553Z,34.22
2023-05-06T11:26:10.231Z,33.93
2023-05-06T11:28:37.425Z,34.16
2023-05-06T11:31:04.680Z,34.36
2023-05-06T11:33:36.548Z,34.19
2023-05-06T11:36:04.212Z,33.89
2023-05-06T11:38:48.109Z,33.64
2023-05-06T11:41:15.670Z,33.65
2023-05-06T11:43:46.784Z,33.42
2023-05-06T11:46:13.701Z,33.75
2023-05-06T11:48:40.690Z,33.53
2023-05-06T11:51:08.365Z,33.30
2023-05-06T11:53:35.410Z,33.29
2023-05-06T11:56:02.632Z,33.06
2023-05-06T11:58:29.644Z,32.57
2023-05-06T12:01:00.661Z,32.18
2023-05-06T12:03:28.853Z,31.87
2023-05-06T12:05:56.296Z,31.63
2023-05-06T12:08:27.807Z,31.76
2023-05-06T12:10:56.558Z,31.59
2023-05-06T12:13:23.585Z,31.68
2023-05-06T12:15:50.681Z,31.79
2023-05-06T12:18:17.680Z,31.85
2023-05-06T12:20:44.713Z,31.68
2023-05-06T12:23:12.640Z,31.84
2023-05-06T12:25:40.067Z,32.09
2023-05-06T12:28:26.972Z,31.77
2023-05-06T12:30:54.010Z,31.88
2023-05-06T12:33:21.520Z,31.63
2023-05-06T12:35:49.110Z,31.54
2023-05-06T12:38:16.940Z,31.61
2023-05-06T12:40:45.344Z,31.78
2023-05-06T12:43:12.562Z,31.57
2023-05-06T12:45:40.203Z,31.46
2023-05-06T12:48:07.496Z,31.36
2023-05-06T12:50:39.658Z,31.08
2023-05-06T12:53:10.353Z,30.97
2023-05-06T12:55:38.391Z,30.45
2023-05-06T12:58:15.876Z,30.14
2023-05-06T13:00:42.959Z,30.35
2023-05-06T13:03:11.667Z,30.49
2023-05-06T13:05:38.805Z,30.34
2023-05-06T13:08:05.933Z,30.05
2023-05-06T13:10:32.972Z,29.73
2023-05-06T13:12:59.943Z,29.47
2023-05-06T13:15:27.198Z,29.21
2023-05-06T13:17:54.360Z,28.71
2023-05-06T13:20:21.773Z,28.66
2023-05-06T13:22:54.722Z,28.16
2023-05-06T13:25:22.393Z,28.12
2023-05-06T13:27:49.573Z,28.13
2023-05-06T13:30:17.190Z,27.96
2023-05-06T13:32:44.178Z,27.77
2023-05-06T13:35:11.570Z,27.42
2023-05-06T13:37:38.696Z,27.55
2023-05-06T13:40:06.605Z,27.53
2023-05-06T13:42:33.704Z,27.51
2023-05-06T13:45:00.748Z,27.50
2023-05-06T13:47:27.706Z,27.09
2023-05-06T13:49:54.640Z,27.09
2023-05-06T13:52:21.811Z,26.81
2023-05-06T13:54:49.702Z,27.28
2023-05-06T13:57:17.497Z,26.95
2023-05-06T13:59:44.450Z,27.24
2023-05-06T14:02:11.961Z,27.38
2023-05-06T14:04:39.041Z,27.39
2023-05-06T14:07:06.183Z,27.38
2023-05-06T14:09:33.328Z,27.23
2023-05-06T14:12:00.657Z,26.90
2023-05-06T14:14:27.682Z,26.90
2023-05-06T14:16:55.782Z,27.23
2023-05-06T14:19:23.542Z,27.14
2023-05-06T14:21:51.895Z,26.90
2023-05-06T14:24:18.856Z,27.03
2023-05-06T14:26:46.293Z,26.97
2023-05-06T14:29:13.304Z,27.17
2023-05-06T14:31:40.428Z,27.07
2023-05-06T14:34:07.551Z,27.34
2023-05-06T14:36:34.566Z,27.14
2023-05-06T14:39:01.590Z,27.46
2023-05-06T14:41:28.690Z,27.51
2023-05-06T14:43:55.796Z,27.50
2023-05-06T14:46:23.176Z,27.50
2023-05-06T14:48:50.791Z,27.37
2023-05-06T14:51:17.752Z,27.33
2023-05-06T14:53:45.470Z,27.54
2023-05-06T14:56:12.532Z,27.90
2023-05-06T14:58:39.521Z,28.35
2023-05-06T15:01:07.179Z,28.87
2023-05-06T15:03:34.244Z,28.97
2023-05-06T15:06:01.344Z,28.90
2023-05-06T15:08:28.338Z,29.07
2023-05-06T15:10:55.533Z,29.03
2023-05-06T15:13:22.630Z,29.04
2023-05-06T15:15:49.729Z,28.93
2023-05-06T15:18:16.690Z,29.23
2023-05-06T15:20:43.643Z,29.31
2023-05-06T15:23:10.815Z,29.37
2023-05-06T15:25:38.247Z,29.84
2023-05-06T15:28:05.742Z,30.08
2023-05-06T15:30:32.725Z,30.14
2023-05-06T15:33:01.475Z,29.80
2023-05-06T15:35:28.650Z,29.98
2023-05-06T15:37:58.807Z,30.28
2023-05-06T15:40:26.329Z,30.58
2023-05-06T15:42:53.280Z,30.75
2023-05-06T15:45:21.137Z,30.63
2023-05-06T15:47:48.467Z,30.73
2023-05-06T15:50:25.343Z,31.03
2023-05-06T15:52:59.320Z,31.14
2023-05-06T15:55:26.751Z,31.19
2023-05-06T15:57:54.943Z,31.02
2023-05-06T16:00:22.305Z,31.22
2023-05-06T16:02:49.438Z,31.36
2023-05-06T16:05:16.787Z,31.30
2023-05-06T16:07:43.782Z,31.44
2023-05-06T16:10:10.908Z,31.34
2023-05-06T16:12:38.104Z,31.58
2023-05-06T16:15:05.475Z,31.65
2023-05-06T16:17:37.626Z,31.42
2023-05-06T16:20:05.544Z,31.35
2023-05-06T16:22:32.522Z,31.38
2023-05-06T16:24:59.492Z,31.37
2023-05-06T16:27:28.400Z,31.48
2023-05-06T16:29:55.802Z,31.51
2023-05-06T16:32:23.439Z,31.61
2023-05-06T16:34:50.521Z,31.60
2023-05-06T16:37:17.478Z,31.33
2023-05-06T16:39:44.420Z,31.07
2023-05-06T16:42:11.392Z,30.99
2023-05-06T16:44:38.386Z,31.10
2023-05-06T16:47:05.968Z,31.05
2023-05-06T16:49:33.936Z,30.89
2023-05-06T16:52:00.919Z,30.65
2023-05-06T16:54:27.907Z,30.51
2023-05-06T16:56:54.943Z,30.64
2023-05-06T16:59:22.557Z,31.00
2023-05-06T17:01:50.530Z,31.54
2023-05-06T17:04:17.553Z,32.13
2023-05-06T17:06:44.565Z,32.79
2023-05-06T17:09:11.592Z,33.01
2023-05-06T17:11:38.568Z,32.86
2023-05-06T17:14:05.578Z,32.36
2023-05-06T17:16:32.578Z,31.99
2023-05-06T17:18:59.565Z,31.86
2023-05-06T17:21:27.961Z,32.07
2023-05-06T17:23:55.015Z,32.18
2023-05-06T17:26:22.269Z,32.07
2023-05-06T17:28:50.993Z,32.10
2023-05-06T17:31:18.600Z,32.07
2023-05-06T17:33:45.782Z,32.13
2023-05-06T17:36:13.356Z,32.48
2023-05-06T17:38:40.314Z,32.79
2023-05-06T17:41:07.294Z,32.85
2023-05-06T17:43:34.328Z,32.99
2023-05-06T17:46:01.547Z,33.53
2023-05-06T17:48:28.663Z,34.10
2023-05-06T17:51:00.924Z,34.70
2023-05-06T17:53:28.403Z,35.05
2023-05-06T17:55:55.452Z,34.80
2023-05-06T17:58:22.386Z,35.06
2023-05-06T18:00:49.317Z,35.39
2023-05-06T18:03:16.556Z,35.38
2023-05-06T18:05:43.619Z,35.88
2023-05-06T18:08:10.671Z,36.39
2023-05-06T18:10:37.623Z,36.37
2023-05-06T18:13:04.664Z,36.53
2023-05-06T18:15:31.674Z,37.21
2023-05-06T18:17:58.656Z,37.64
2023-05-06T18:20:25.755Z,37.78
2023-05-06T18:22:52.715Z,38.15
2023-05-06T18:25:19.779Z,38.20
2023-05-06T18:27:47.529Z,38.16
2023-05-06T18:30:15.170Z,37.82
2023-05-06T18:32:42.189Z,38.06
2023-05-06T18:35:11.195Z,38.16
2023-05-06T18:37:38.672Z,37.67
2023-05-06T18:40:07.817Z,37.55
2023-05-06T18:42:35.649Z,38.00
2023-05-06T18:45:04.718Z,38.10
2023-05-06T18:47:32.354Z,37.95
2023-05-06T18:50:00.833Z,38.01
2023-05-06T18:52:27.819Z,37.95
2023-05-06T18:54:54.786Z,37.57
2023-05-06T18:57:21.917Z,36.54
2023-05-06T18:59:48.898Z,36.23
2023-05-06T19:02:15.883Z,35.98
2023-05-06T19:04:43.620Z,35.67
2023-05-06T19:07:11.288Z,35.30
2023-05-06T19:09:38.623Z,35.05
2023-05-06T19:12:05.726Z,35.06
2023-05-06T19:14:34.714Z,34.99
2023-05-06T19:17:03.506Z,35.00
2023-05-06T19:19:31.326Z,35.14
2023-05-06T19:21:59.186Z,35.09
2023-05-06T19:24:26.394Z,35.07
2023-05-06T19:26:53.364Z,35.11
2023-05-06T19:29:20.321Z,34.94
2023-05-06T19:31:47.307Z,35.09
2023-05-06T19:34:14.241Z,35.16
2023-05-06T19:36:41.310Z,35.03
2023-05-06T19:39:08.347Z,34.99
2023-05-06T19:41:35.289Z,35.06
2023-05-06T19:44:02.250Z,35.07
2023-05-06T19:46:29.222Z,34.89
2023-05-06T19:48:58.168Z,34.77
2023-05-06T19:51:25.112Z,34.58
2023-05-06T19:53:52.060Z,34.78
2023-05-06T19:56:19.814Z,34.65
2023-05-06T19:58:46.822Z,34.87
2023-05-06T20:01:13.869Z,34.95
2023-05-06T20:03:41.056Z,35.31
2023-05-06T20:06:08.141Z,35.31
2023-05-06T20:08:35.543Z,35.36
2023-05-06T20:11:02.611Z,35.17
2023-05-06T20:13:29.627Z,35.41
2023-05-06T20:15:57.504Z,35.73
2023-05-06T20:18:25.304Z,36.41
2023-05-06T20:20:52.280Z,37.16
2023-05-06T20:23:19.230Z,37.98
2023-05-06T20:25:46.298Z,39.04
2023-05-06T20:28:13.450Z,39.91
2023-05-06T20:30:40.528Z,40.59
2023-05-06T20:33:08.022Z,41.24
2023-05-06T20:35:38.542Z,41.82
2023-05-06T20:38:06.240Z,42.50
2023-05-06T20:40:34.202Z,42.82
2023-05-06T20:43:01.258Z,42.95
2023-05-06T20:45:28.433Z,42.82
2023-05-06T20:47:55.532Z,42.68
2023-05-06T20:50:22.487Z,42.84
2023-05-06T20:52:49.537Z,43.10
2023-05-06T20:55:16.625Z,43.01
2023-05-06T20:57:44.097Z,42.61
2023-05-06T21:00:11.625Z,42.15
2023-05-06T21:02:41.396Z,42.22
2023-05-06T21:05:09.306Z,42.43
2023-05-06T21:07:36.477Z,42.46
2023-05-06T21:10:05.982Z,42.41
2023-05-06T21:12:33.618Z,42.45
2023-05-06T21:15:00.870Z,42.59
2023-05-06T21:17:28.491Z,42.60
2023-05-06T21:19:55.562Z,42.54
2023-05-06T21:22:25.863Z,42.22
2023-05-06T21:24:52.898Z,41.94
2023-05-06T21:27:19.858Z,41.87
2023-05-06T21:29:46.797Z,42.02
2023-05-06T21:32:13.857Z,42.42
2023-05-06T21:34:40.869Z,42.69
2023-05-06T21:37:07.887Z,43.05
2023-05-06T21:39:34.873Z,43.30
2023-05-06T21:42:02.143Z,42.70
2023-05-06T21:44:29.117Z,42.55
2023-05-06T21:46:56.320Z,42.61
2023-05-06T21:49:23.493Z,42.84
2023-05-06T21:51:50.429Z,43.17
2023-05-06T21:54:17.514Z,43.46
2023-05-06T21:56:44.813Z,43.47
2023-05-06T21:59:11.835Z,43.25
2023-05-06T22:01:39.020Z,43.02
2023-05-06T22:04:11.497Z,43.04
2023-05-06T22:06:39.489Z,42.96
2023-05-06T22:09:09.799Z,42.73
2023-05-06T22:11:38.540Z,42.64
2023-05-06T22:14:06.908Z,42.86
2023-05-06T22:16:35.570Z,43.25
2023-05-06T22:19:04.136Z,43.43
2023-05-06T22:21:33.038Z,43.18
2023-05-06T22:24:00.083Z,42.70
2023-05-06T22:26:29.949Z,42.16
2023-05-06T22:28:56.929Z,42.35
2023-05-06T22:31:24.904Z,42.61
2023-05-06T22:33:55.575Z,42.92
2023-05-06T22:36:22.753Z,42.81
2023-05-06T22:38:50.006Z,42.31
2023-05-06T22:41:17.583Z,41.54
2023-05-06T22:43:44.533Z,41.13
2023-05-06T22:46:11.508Z,41.09
2023-05-06T22:48:38.518Z,41.70
2023-05-06T22:51:05.609Z,42.28
2023-05-06T22:53:32.590Z,42.30
2023-05-06T22:55:59.707Z,42.24
2023-05-06T22:58:26.684Z,42.53
2023-05-06T23:00:53.783Z,43.18
2023-05-06T23:03:22.609Z,43.06
2023-05-06T23:05:49.774Z,42.83
2023-05-06T23:08:16.739Z,42.98
2023-05-06T23:10:44.217Z,43.37
2023-05-06T23:13:12.207Z,43.63
2023-05-06T23:15:40.094Z,43.72
2023-05-06T23:18:07.296Z,43.68
2023-05-06T23:20:34.357Z,43.95
2023-05-06T23:23:01.362Z,43.89
2023-05-06T23:25:28.329Z,43.91
2023-05-06T23:27:55.418Z,43.90
2023-05-06T23:30:22.534Z,43.85
2023-05-06T23:32:49.617Z,43.67
2023-05-06T23:35:16.722Z,43.58
2023-05-06T23:37:43.658Z,43.60
2023-05-06T23:40:12.723Z,43.56
2023-05-06T23:42:40.173Z,43.83
2023-05-06T23:45:07.706Z,44.27
2023-05-06T23:47:34.696Z,44.17
2023-05-06T23:50:01.680Z,43.64
2023-05-06T23:52:28.629Z,43.98
2023-05-06T23:54:55.725Z,44.34
2023-05-06T23:57:22.762Z,44.56
2023-05-06T23:59:49.744Z,44.50
